AirNav   Bose ProFlight Series 2 Headset
 
 1764 users online  

LL78 LZ Fairwinds Airport
Rockford, Illinois, USA

GOING TO ROCKFORD?


FAA INFORMATION EFFECTIVE 02 JANUARY 2020

Location

FAA Identifier: LL78
Lat/Long: 42-18-42.0670N 089-09-03.3890W
42-18.701117N 089-09.056483W
42.3116853,-89.1509414
(estimated)
Elevation: 752 ft. / 229 m (estimated)
Variation: 00E (1985)
From city: 6 miles NW of ROCKFORD, IL
Time zone: UTC -6 (UTC -5 during Daylight Saving Time)
Zip code: 61101

Airport Operations

Airport use: Private use. Permission required prior to landing
Activation date: 10/1975
Control tower: no
ARTCC: CHICAGO CENTER
FSS: KANKAKEE FLIGHT SERVICE STATION
Attendance: UNATNDD
Wind indicator: no
Segmented circle: no

Airport Communications

WX ASOS at RFD (7 nm S): PHONE 815-484-6229
WX AWOS-3 at JVL (19 nm N): PHONE 608-758-1723
WX AWOS-3 at FEP (20 nm W): 120.525 (815-233-4472)

Nearby radio navigation aids

VOR radial/distance  VOR name  Freq  Var
RFDr022/5.6ROCKFORD VOR/DME110.8001E
JVLr185/14.9JANESVILLE VOR/DME114.3003E
PLLr036/26.6POLO VOR/DME111.2003E

 
NDB name  Hdg/Dist  Freq  Var  ID
LAKE LAWN229/33.940402WLVV .-.. ...- ...-

Airport Services

Runway Information

Runway 9/27

Dimensions: 1700 x 100 ft. / 518 x 30 m
Surface: turf
RUNWAY 9  RUNWAY 27
Traffic pattern: leftleft

Airport Ownership and Management from official FAA records

Ownership: Privately-owned
Owner: MICHAEL LINDEN & NICHOLAS PARVELLO
5938 PAGE ROAD
ROCKFORD, IL 61101
Phone 815-963-9411
Manager: MICHAEL LINDEN
5938 PAGE ROAD
ROCKFORD, IL 61101
Phone 815-963-9411

Airport Operational Statistics

Aircraft based on the field: 2
Single engine airplanes: 2
    

Additional Remarks

OWNER DESIRES ARPT NOT BE CHARTED.
FOR CD CTC CHICAGO ARTCC AT 630-906-8921.

Instrument Procedures

There are no published instrument procedures at LL78.

Some nearby airports with instrument procedures:

KRFD - Chicago/Rockford International Airport (7 nm S)
44C - Beloit Airport (14 nm NE)
C77 - Poplar Grove Airport (14 nm E)
KJVL - Southern Wisconsin Regional Airport (19 nm N)
KFEP - Albertus Airport (20 nm W)
 
Loc | Ops | Rwys | IFR | FBO | Links
Com | Nav | Svcs | Stats | Notes
Area around LL78 (LZ Fairwinds Airport)
 
Road maps at: MapQuest Bing Google
 
Aerial photo
No photo
 
Sectional chart

 
Airport distance calculator
Flying to LZ Fairwinds Airport? Find the distance to fly.

From to LL78

Sunrise and sunset
Times for 28-Jan-2020
 Local
(UTC-6)
 Zulu
(UTC)
Morning civil twilight06:4512:45
Sunrise07:1513:15
Sunset17:0423:04
Evening civil twilight17:3423:34

Current date and time
Zulu (UTC)  28-Jan-2020 19:28:38
Local (UTC-6)  28-Jan-2020 13:28:38
 
METAR
KRFD 
7nm S 
281854Z 29006KT 10SM -SN OVC015 M01/M04 A3009 RMK AO2 SNB29 SLP198 P0000 T10111044
KJVL 
19nm N 
281845Z 30006KT 10SM OVC017 M01/M04 A3007
KFEP 
20nm W 
281915Z AUTO 33005KT 10SM OVC011 M03/M05 A3009 RMK AO2 T10261047
TAF
KRFD 
7nm S 
281733Z 2818/2918 32005KT P6SM OVC014 FM290300 01004KT P6SM OVC018
NOTAMs
Click for the latest NOTAMs
NOTAMs are issued by the DoD/FAA and will open in a separate window not controlled by AirNav.

 

 
 

Would you like to see your business listed on this page?

 If your business provides an interesting product or service to pilots, flight crews, aircraft, or users of the LZ Fairwinds Airport, you should consider listing it here.  To start the listing process, click on the button below
 
Add a business
 

Other Pages about LZ Fairwinds Airport

Update a link
 
Copyright © AirNav, LLC. All rights reserved. Privacy Policy  Contact